Terminal Aerodrome Forecast
Issued by NWS

Home | Current Version | Previous Version | Text Only | Print | Product List | Glossary On
Versions: 1 2 3 4 5 6 7 8 9 10 11 12 13 14 15
000
FTUS43 KEAX 160500
TAFMKC
TAF
KMKC 160520Z 1606/1706 VRB03KT P6SM BKN025
     FM160800 VRB02KT P6SM SCT008 OVC018
      TEMPO 1610/1614 4SM BR BKN009
     FM161500 14006KT P6SM BKN025
     FM162000 16006KT P6SM SCT025=

USA.gov is the U.S. government's official web portal to all federal, state and local government web resources and services.